Aérodrome :
LOGIN :

S'inscrire | Disclaimer

   EN    FR    IT 

 










Légende :    VFR   VFR Marginal   IFR   IFR Intensif   IFR Très Intensif
Visi : 
Plafond : 
>= 8 km
>= 3000ft
5 à 8 km
1000 à 3000 ft
1500m à 5 km
500 à 1000 ft
800 à 1500m
200 à 500 ft
< 800m
< 200 ft
Symboles :   Orages  Brouillard  Fortes neiges  Fortes précipitations  Vent > 20 kt
SIGMETs :   Divers  Orages  Givrage  Turbulence  Onde Orograph.  Cendres Volcan.







- Altitude de l'aérodrome : 13 ft
- Code IATA : OST


EBOS - Oostend bruges Int.

DERNIER METAR :
  • 181050Z 18004KT 130V220 7000 FEW006 16/13 Q1012 NOSIG

METARs EXPIRÉS :
  • 181020Z 16005KT 120V200 7000 FEW005 15/12 Q1012 NOSIG
  • 180950Z 16006KT 5000 BR SCT005 14/12 Q1012 BECMG 8000
  • 180920Z 17006KT 4000 BR FEW003 BKN005 13/11 Q1013 BECMG 6000 SCT005
  • 180850Z 15006KT 3000 BR BKN003 12/11 Q1013 BECMG 6000 SCT005
  • 180820Z 14007KT 0800 R08/1200N R26/1500U FG BKN002 12/11 Q1013 BECMG 3000 BKN005

TAF TAF EBOS
Valide du 18 à 06h jusqu'au 19 à 12h UTC


180500Z 1806/1912 09005KT 9999 SCT030
Pas de NOTAMs connus pour ce terrain.



MET'MAP, la Météo Aéronautique d'un coup d'oeil ! - Copyright ORBIFLY Décembre 2007 - Disclaimer

ORBIFLY MET'MAP TEAM :

Programmation & Développement : Alexandra Zaïnal
Conception & Développement : Baudouin d'Aumeries
Co-Programmation & Développement : Marc-Olivier Méhu
Soutien technique & logistique : Manuel Goepfert

Contact : metmap@orbifly.com




SOURCES & CREDITS :

   NOAA